Airport View

Enter AWOS ICAO identifier for current METAR.

ex. KFNL

KOXV 202250Z AUTO 14005KT 1 3/4SM BR OVC004 06/05 A2998 RMK AO2

20 Oct 2020 22:52

Frequency: 119.775

Phone: 641-828-8406

Other Area AWOS: KPEA - KCNC - KTNU - KOOA

TAF AMD KDSM 202122Z 2021/2118 10006KT 2SM -DZ BR OVC010 FM210300 24004KT P6SM BKN100 FM211100 33004KT P6SM BKN060